Tustin, Michigan
Current Conditions -  °F | °C
As of 3:34 AM on Saturday 25 Oct 2014 (Local Time) from KCAD Reporting Station
Haze Haze  
Wind Chill: 43°   Ceiling: 3300
Heat Index: 47°   Visibility: 4mi
Dew Point: 47°   Wind: 8mph
Humidity: 99%   Direction: 210°SSW
Pressure: 29.81"   Gusts: NA
Location:  44.1°N, 85.46°W
Report Text: KCAD 250734Z AUTO 21007KT 4SM BR OVC033 08/08 A2981 RMK AO2 T00850084
Loading
Personal Weather Stations






























Interactive Weather Map
Tropical Storm Tracking
New forecast layout! Learn more

10-Day Weather Forecast

Advertisements
Track Severe Weather on mobile